Airfield :







YOU CAN JOIN US ON...

 
LOGIN :

Register | Disclaimer

   EN    FR    IT 

 









Legend :    VFR   Marginal VFR   IFR   Intensive IFR   Very Intensive IFR
Visi :
Ceiling :
>= 8 km
>= 3000ft
5 to 8 km
1000 to 3000 ft
1500m to 5 km
500 to 1000 ft
800 to 1500m
200 to 500 ft
< 800m
< 200 ft
Symbols :   Thunderstorms  Fog  Heavy snow  Heavy precipitations  Wind > 20 kt






- Airport Elevation : 10 ft
- IATA code : SIG


TJIG - Fernando Luis Ribas Dominicci

CURRENT METAR :
  • 212245Z 10008KT 8SM VCSH SCT030 BKN060 25/22 A2995 RMK VCSH E

EXPIRED METARs :
  • 212145Z 10008KT 8SM VCSH SCT030 BKN060 25/22 A2995 RMK VCSH E
  • 212045Z 12008KT 8SM VCSH SCT030 BKN060 25/23 A2994 RMK VCSH E
  • 211945Z 09015KT 8SM SCT030 BKN070 28/21 A2995
  • 211845Z 09008KT 8SM SCT030 BKN070 28/21 A2996

TAF N/A
TJZS FIR / North America



MET'MAP, your aeronautical weather chart ! - Copyright ORBIFLY December 2007 - Disclaimer

ORBIFLY MET'MAP TEAM :

Programming & Development : Alexandra Zaïnal
Original concept : Baudouin d'Aumeries
Technical & hardware support : Manuel Goepfert
Assistance : Marc-Olivier Méhu




SOURCES & CREDITS :

   NOAA